createdAt,value
2019-04-05T00:01:50.453Z,90.10
2019-04-05T00:06:54.103Z,90.10
2019-04-05T00:11:57.851Z,90.10
2019-04-05T00:17:01.453Z,90.10
2019-04-05T00:22:05.147Z,90.00
2019-04-05T00:27:08.852Z,90.00
2019-04-05T00:32:12.419Z,90.00
2019-04-05T00:37:16.012Z,90.00
2019-04-05T00:42:19.682Z,89.70
2019-04-05T00:47:23.353Z,90.00
2019-04-05T00:52:27.077Z,90.20
2019-04-05T00:57:30.720Z,90.10
2019-04-05T01:02:34.428Z,90.60
2019-04-05T01:07:38.153Z,90.70
2019-04-05T01:12:42.496Z,90.60
2019-04-05T01:17:46.231Z,90.80
2019-04-05T01:22:49.863Z,91.00
2019-04-05T01:27:53.582Z,90.70
2019-04-05T01:32:57.252Z,90.80
2019-04-05T01:38:00.964Z,91.10
2019-04-05T01:43:04.693Z,90.90
2019-04-05T01:48:08.423Z,90.80
2019-04-05T01:53:12.120Z,90.90
2019-04-05T01:58:15.786Z,91.10
2019-04-05T02:03:19.489Z,91.00
2019-04-05T02:08:23.215Z,91.10
2019-04-05T02:13:27.092Z,91.30
2019-04-05T02:18:30.880Z,91.30
2019-04-05T02:23:34.512Z,91.40
2019-04-05T02:28:38.225Z,91.50
2019-04-05T02:33:41.962Z,91.40
2019-04-05T02:38:45.681Z,91.70
2019-04-05T02:43:51.229Z,91.40
2019-04-05T02:48:55.781Z,91.80
2019-04-05T02:53:59.818Z,91.60
2019-04-05T02:59:03.950Z,91.60
2019-04-05T03:04:07.821Z,91.50
2019-04-05T03:09:12.442Z,91.40
2019-04-05T03:14:16.375Z,91.60
2019-04-05T03:19:23.028Z,91.70
2019-04-05T03:24:27.375Z,91.90
2019-04-05T03:29:32.072Z,91.70
2019-04-05T03:34:36.494Z,91.60
2019-04-05T03:39:40.621Z,91.80
2019-04-05T03:44:44.543Z,91.80
2019-04-05T03:49:48.369Z,91.80
2019-04-05T03:54:52.571Z,91.90
2019-04-05T03:59:56.287Z,92.60
2019-04-05T04:05:00.214Z,92.00
2019-04-05T04:10:04.961Z,92.00
2019-04-05T04:15:15.044Z,92.20
2019-04-05T04:20:33.793Z,92.60
2019-04-05T04:25:39.009Z,93.10
2019-04-05T04:30:42.852Z,92.30
2019-04-05T04:35:46.585Z,92.20
2019-04-05T04:40:50.426Z,91.80
2019-04-05T04:45:54.457Z,91.50
2019-04-05T04:50:58.818Z,92.30
2019-04-05T04:56:02.533Z,91.50
2019-04-05T05:01:06.521Z,90.90
2019-04-05T05:06:10.355Z,90.70
2019-04-05T05:11:15.137Z,89.30
2019-04-05T05:16:18.917Z,90.30
2019-04-05T05:21:22.573Z,87.20
2019-04-05T05:26:26.425Z,87.10
2019-04-05T05:31:30.129Z,87.00
2019-04-05T05:36:33.982Z,83.60
2019-04-05T05:41:37.688Z,82.30
2019-04-05T05:46:41.432Z,83.80
2019-04-05T05:51:46.251Z,80.00
2019-04-05T05:56:49.836Z,79.10
2019-04-05T06:01:53.510Z,81.70
2019-04-05T06:06:57.179Z,81.80
2019-04-05T06:12:00.896Z,80.20
2019-04-05T06:17:04.636Z,80.40
2019-04-05T06:22:08.259Z,83.10
2019-04-05T06:27:11.936Z,84.50
2019-04-05T06:32:15.617Z,84.80
2019-04-05T06:37:19.287Z,83.60
2019-04-05T06:42:22.886Z,83.70
2019-04-05T06:47:26.477Z,84.80
2019-04-05T06:52:30.128Z,81.80
2019-04-05T06:57:33.775Z,83.50
2019-04-05T07:02:37.397Z,84.00
2019-04-05T07:07:41.045Z,80.60
2019-04-05T07:12:44.739Z,79.10
2019-04-05T07:17:48.340Z,80.10
2019-04-05T07:22:51.920Z,80.20
2019-04-05T07:27:55.520Z,77.90
2019-04-05T07:32:59.071Z,78.90
2019-04-05T07:38:03.629Z,77.40
2019-04-05T07:43:07.326Z,78.90
2019-04-05T07:48:10.988Z,78.60
2019-04-05T07:53:14.640Z,77.40
2019-04-05T07:58:18.241Z,76.00
2019-04-05T08:03:22.932Z,76.90
2019-04-05T08:08:38.253Z,78.10
2019-04-05T08:13:43.858Z,75.00
2019-04-05T08:18:56.957Z,73.80
2019-04-05T08:23:52.712Z,75.10
2019-04-05T08:28:56.295Z,72.80
2019-04-05T08:33:59.952Z,72.10
2019-04-05T08:39:06.228Z,72.70
2019-04-05T08:44:10.029Z,72.70
2019-04-05T08:49:13.686Z,71.10
2019-04-05T08:54:17.272Z,69.80
2019-04-05T08:59:20.883Z,69.70
2019-04-05T09:04:24.528Z,73.30
2019-04-05T09:09:28.196Z,71.50
2019-04-05T09:14:31.885Z,69.10
2019-04-05T09:19:35.483Z,70.30
2019-04-05T09:24:39.136Z,68.30
2019-04-05T09:29:42.809Z,68.10
2019-04-05T09:34:46.375Z,68.20
2019-04-05T09:39:49.941Z,70.00
2019-04-05T09:44:53.525Z,68.20
2019-04-05T09:49:57.127Z,67.20
2019-04-05T09:55:00.744Z,67.80
2019-04-05T10:00:11.895Z,64.70
2019-04-05T10:05:15.425Z,66.50
2019-04-05T10:10:19.775Z,63.70
2019-04-05T10:15:23.408Z,63.70
2019-04-05T10:20:27.079Z,63.30
2019-04-05T10:25:30.645Z,59.60
2019-04-05T10:30:34.320Z,62.40
2019-04-05T10:35:37.960Z,59.10
2019-04-05T10:40:42.576Z,63.20
2019-04-05T10:45:46.799Z,59.90
2019-04-05T10:50:50.670Z,58.50
2019-04-05T10:55:54.341Z,60.10
2019-04-05T11:00:58.928Z,60.70
2019-04-05T11:06:02.573Z,61.60
2019-04-05T11:11:06.468Z,63.50
2019-04-05T11:16:10.219Z,59.30
2019-04-05T11:21:13.840Z,60.40
2019-04-05T11:26:17.424Z,61.00
2019-04-05T11:31:21.153Z,58.50
2019-04-05T11:36:25.473Z,60.70
2019-04-05T11:41:30.223Z,60.10
2019-04-05T11:46:36.518Z,59.10
2019-04-05T11:51:39.412Z,58.40
2019-04-05T11:56:42.992Z,62.80
2019-04-05T12:01:48.339Z,61.60
2019-04-05T12:06:52.561Z,63.20
2019-04-05T12:11:56.243Z,63.90
2019-04-05T12:16:59.981Z,66.00
2019-04-05T12:22:05.274Z,66.00
2019-04-05T12:27:09.137Z,62.90
2019-04-05T12:32:17.915Z,66.00
2019-04-05T12:37:21.865Z,62.70
2019-04-05T12:42:24.427Z,67.30
2019-04-05T12:47:28.140Z,67.10
2019-04-05T12:52:31.731Z,66.60
2019-04-05T12:57:35.574Z,68.20
2019-04-05T13:02:39.208Z,67.20
2019-04-05T13:07:42.851Z,59.80
2019-04-05T13:12:46.539Z,61.30
2019-04-05T13:17:50.210Z,60.20
2019-04-05T13:22:53.898Z,58.70
2019-04-05T13:27:57.572Z,58.10
2019-04-05T13:33:01.321Z,57.60
2019-04-05T13:38:05.130Z,56.00
2019-04-05T13:43:08.840Z,59.00
2019-04-05T13:48:12.613Z,59.80
2019-04-05T13:53:16.307Z,60.00
2019-04-05T13:58:19.934Z,61.80
2019-04-05T14:03:23.586Z,67.00
2019-04-05T14:08:27.225Z,67.60
2019-04-05T14:13:30.810Z,66.40
2019-04-05T14:18:34.455Z,66.40
2019-04-05T14:23:38.113Z,67.00
2019-04-05T14:28:41.803Z,67.90
2019-04-05T14:33:45.510Z,67.00
2019-04-05T14:38:49.321Z,69.50
2019-04-05T14:43:52.971Z,68.00
2019-04-05T14:48:58.443Z,66.70
2019-04-05T14:54:02.430Z,65.80
2019-04-05T14:59:06.192Z,64.70
2019-04-05T15:04:11.988Z,66.30
2019-04-05T15:09:15.219Z,65.50
2019-04-05T15:14:18.945Z,65.20
2019-04-05T15:19:22.612Z,68.10
2019-04-05T15:24:26.208Z,71.20
2019-04-05T15:29:29.813Z,71.00
2019-04-05T15:34:33.517Z,72.80
2019-04-05T15:39:37.195Z,69.70
2019-04-05T15:44:40.919Z,70.70
2019-04-05T15:49:44.614Z,72.00
2019-04-05T15:54:48.200Z,72.20
2019-04-05T15:59:53.512Z,74.90
2019-04-05T16:04:57.230Z,75.40
2019-04-05T16:10:00.910Z,74.90
2019-04-05T16:15:06.216Z,75.80
2019-04-05T16:20:10.968Z,76.40
2019-04-05T16:25:15.980Z,77.20
2019-04-05T16:30:20.644Z,79.20
2019-04-05T16:35:24.365Z,80.50
2019-04-05T16:40:31.221Z,78.50
2019-04-05T16:45:33.879Z,83.20
2019-04-05T16:50:37.590Z,87.00
2019-04-05T16:55:41.394Z,89.00
2019-04-05T17:00:45.835Z,87.10
2019-04-05T17:05:49.558Z,85.70
2019-04-05T17:10:53.332Z,86.20
2019-04-05T17:15:57.019Z,87.20
2019-04-05T17:21:00.931Z,86.50
2019-04-05T17:26:04.751Z,87.60
2019-04-05T17:31:08.477Z,89.70
2019-04-05T17:36:12.136Z,90.10
2019-04-05T17:41:15.830Z,88.70
2019-04-05T17:52:43.201Z,89.50
2019-04-05T17:57:48.745Z,90.70
2019-04-05T18:02:52.473Z,91.70
2019-04-05T18:07:56.218Z,91.90
2019-04-05T18:12:59.832Z,92.00
2019-04-05T18:18:03.482Z,93.00
2019-04-05T18:23:07.148Z,94.30
2019-04-05T18:28:10.754Z,94.60
2019-04-05T18:33:14.489Z,94.00
2019-04-05T18:38:18.080Z,93.90
2019-04-05T18:43:21.761Z,92.90
2019-04-05T18:48:25.415Z,93.70
2019-04-05T18:53:37.431Z,93.50
2019-04-05T18:58:34.550Z,94.10
2019-04-05T19:03:38.146Z,93.50
2019-04-05T19:08:41.887Z,95.50
2019-04-05T19:13:45.796Z,96.80
2019-04-05T19:18:49.379Z,95.00
2019-04-05T19:23:53.141Z,95.60
2019-04-05T19:28:56.870Z,96.00
2019-04-05T19:49:17.956Z,98.10
2019-04-05T19:54:21.694Z,99.90
2019-04-05T19:59:25.370Z,99.90
2019-04-05T20:04:28.965Z,99.00
2019-04-05T20:09:32.643Z,99.20
2019-04-05T20:14:36.360Z,98.60
2019-04-05T20:19:39.975Z,98.80
2019-04-05T20:24:43.641Z,98.40
2019-04-05T20:29:47.310Z,98.10
2019-04-05T20:34:50.896Z,99.90
2019-04-05T20:39:54.477Z,99.90
2019-04-05T20:44:58.197Z,99.90
2019-04-05T20:50:01.935Z,99.90
2019-04-05T20:55:07.181Z,99.90
2019-04-05T21:00:13.171Z,99.90
2019-04-05T21:05:24.855Z,99.90
2019-04-05T21:10:22.838Z,99.90
2019-04-05T21:15:26.496Z,99.90
2019-04-05T21:20:30.280Z,99.90
2019-04-05T21:25:33.979Z,99.90
2019-04-05T21:30:37.566Z,99.90
2019-04-05T21:35:41.219Z,99.90
2019-04-05T21:40:44.889Z,99.90
2019-04-05T21:45:48.588Z,99.90
2019-04-05T21:50:52.137Z,99.90
2019-04-05T21:55:55.825Z,99.90
2019-04-05T22:01:01.395Z,99.90
2019-04-05T22:06:05.337Z,99.90
2019-04-05T22:11:08.920Z,99.90
2019-04-05T22:16:12.598Z,99.90
2019-04-05T22:21:16.210Z,99.90
2019-04-05T22:26:19.810Z,99.90
2019-04-05T22:31:23.408Z,99.90
2019-04-05T22:36:27.093Z,99.90
2019-04-05T22:41:30.720Z,99.90
2019-04-05T22:46:34.325Z,99.90
2019-04-05T22:51:37.908Z,99.90
2019-04-05T22:56:41.494Z,99.90
2019-04-05T23:01:45.099Z,99.90
2019-04-05T23:06:48.718Z,99.90
2019-04-05T23:11:52.322Z,99.90
2019-04-05T23:16:55.997Z,99.90
2019-04-05T23:22:00.965Z,99.90
2019-04-05T23:27:04.880Z,99.90
2019-04-05T23:32:08.585Z,99.90
2019-04-05T23:37:12.158Z,99.90
2019-04-05T23:42:15.735Z,99.90
2019-04-05T23:47:19.349Z,99.90
2019-04-05T23:52:22.997Z,99.90
2019-04-05T23:57:26.684Z,99.90
